sensor_id;sensor_type;location;lat;lon;timestamp;pressure;altitude;pressure_sealevel;temperature;humidity
42105;BME280;61464;51.472;5.712;2023-01-28T00:02:16;102624.41;;;2.36;100.00
42105;BME280;61464;51.472;5.712;2023-01-28T00:04:43;102622.72;;;2.35;100.00
42105;BME280;61464;51.472;5.712;2023-01-28T00:07:09;102627.94;;;2.34;100.00
42105;BME280;61464;51.472;5.712;2023-01-28T00:09:35;102628.75;;;2.34;100.00
42105;BME280;61464;51.472;5.712;2023-01-28T00:12:01;102624.50;;;2.33;100.00
42105;BME280;61464;51.472;5.712;2023-01-28T00:14:27;102616.13;;;2.30;100.00
42105;BME280;61464;51.472;5.712;2023-01-28T00:16:55;102616.16;;;2.28;100.00
42105;BME280;61464;51.472;5.712;2023-01-28T00:19:21;102628.84;;;2.31;100.00
42105;BME280;61464;51.472;5.712;2023-01-28T00:21:49;102619.63;;;2.27;100.00
42105;BME280;61464;51.472;5.712;2023-01-28T00:24:49;102617.13;;;2.26;100.00
42105;BME280;61464;51.472;5.712;2023-01-28T00:27:15;102630.72;;;2.28;100.00
42105;BME280;61464;51.472;5.712;2023-01-28T00:29:40;102622.25;;;2.26;100.00
42105;BME280;61464;51.472;5.712;2023-01-28T00:32:06;102619.69;;;2.26;100.00
42105;BME280;61464;51.472;5.712;2023-01-28T00:34:32;102628.06;;;2.29;100.00
42105;BME280;61464;51.472;5.712;2023-01-28T00:36:58;102617.97;;;2.26;100.00
42105;BME280;61464;51.472;5.712;2023-01-28T00:39:25;102624.88;;;2.24;100.00
42105;BME280;61464;51.472;5.712;2023-01-28T00:41:52;102628.25;;;2.25;100.00
42105;BME280;61464;51.472;5.712;2023-01-28T00:44:19;102624.91;;;2.22;100.00
42105;BME280;61464;51.472;5.712;2023-01-28T00:46:45;102630.78;;;2.26;100.00
42105;BME280;61464;51.472;5.712;2023-01-28T00:49:11;102620.56;;;2.25;100.00
42105;BME280;61464;51.472;5.712;2023-01-28T00:51:38;102618.16;;;2.21;100.00
42105;BME280;61464;51.472;5.712;2023-01-28T00:54:27;102627.53;;;2.21;100.00
42105;BME280;61464;51.472;5.712;2023-01-28T00:56:53;102627.53;;;2.21;100.00
42105;BME280;61464;51.472;5.712;2023-01-28T00:59:19;102642.09;;;2.20;100.00
42105;BME280;61464;51.472;5.712;2023-01-28T01:01:46;102642.09;;;2.20;100.00
42105;BME280;61464;51.472;5.712;2023-01-28T01:04:13;102643.03;;;2.18;100.00
42105;BME280;61464;51.472;5.712;2023-01-28T01:06:51;102654.78;;;2.24;100.00
42105;BME280;61464;51.472;5.712;2023-01-28T01:09:48;102649.00;;;2.18;100.00
42105;BME280;61464;51.472;5.712;2023-01-28T01:12:44;102648.25;;;2.15;100.00
42105;BME280;61464;51.472;5.712;2023-01-28T01:15:11;102642.13;;;2.19;100.00
42105;BME280;61464;51.472;5.712;2023-01-28T01:17:40;102643.91;;;2.17;100.00
42105;BME280;61464;51.472;5.712;2023-01-28T01:20:14;102642.22;;;2.17;100.00
42105;BME280;61464;51.472;5.712;2023-01-28T01:22:40;102643.09;;;2.16;100.00
42105;BME280;61464;51.472;5.712;2023-01-28T01:25:07;102644.81;;;2.16;100.00
42105;BME280;61464;51.472;5.712;2023-01-28T01:27:35;102639.75;;;2.14;100.00
42105;BME280;61464;51.472;5.712;2023-01-28T01:30:01;102631.22;;;2.14;100.00
42105;BME280;61464;51.472;5.712;2023-01-28T01:32:31;102641.47;;;2.14;100.00
42105;BME280;61464;51.472;5.712;2023-01-28T01:35:00;102632.84;;;2.16;100.00
42105;BME280;61464;51.472;5.712;2023-01-28T01:37:27;102635.41;;;2.16;100.00
42105;BME280;61464;51.472;5.712;2023-01-28T01:39:53;102635.59;;;2.12;100.00
42105;BME280;61464;51.472;5.712;2023-01-28T01:42:19;102634.66;;;2.13;100.00
42105;BME280;61464;51.472;5.712;2023-01-28T01:45:14;102639.78;;;2.13;100.00
42105;BME280;61464;51.472;5.712;2023-01-28T01:48:25;102651.78;;;2.12;100.00
42105;BME280;61464;51.472;5.712;2023-01-28T01:51:18;102649.34;;;2.09;100.00
42105;BME280;61464;51.472;5.712;2023-01-28T01:53:50;102649.44;;;2.06;100.00
42105;BME280;61464;51.472;5.712;2023-01-28T01:56:21;102649.56;;;2.03;100.00
42105;BME280;61464;51.472;5.712;2023-01-28T01:58:52;102649.41;;;2.08;100.00
42105;BME280;61464;51.472;5.712;2023-01-28T02:01:23;102651.91;;;2.09;100.00
42105;BME280;61464;51.472;5.712;2023-01-28T02:04:14;102639.25;;;2.05;100.00
42105;BME280;61464;51.472;5.712;2023-01-28T02:06:53;102655.47;;;2.05;100.00
42105;BME280;61464;51.472;5.712;2023-01-28T02:10:03;102659.69;;;2.06;100.00
42105;BME280;61464;51.472;5.712;2023-01-28T02:12:34;102648.72;;;2.03;100.00
42105;BME280;61464;51.472;5.712;2023-01-28T02:15:21;102646.94;;;2.05;100.00
42105;BME280;61464;51.472;5.712;2023-01-28T02:17:49;102649.72;;;1.98;100.00
42105;BME280;61464;51.472;5.712;2023-01-28T02:20:22;102646.28;;;1.99;100.00
42105;BME280;61464;51.472;5.712;2023-01-28T02:31:53;102652.19;;;2.01;100.00
42105;BME280;61464;51.472;5.712;2023-01-28T02:34:50;102652.28;;;1.98;100.00
42105;BME280;61464;51.472;5.712;2023-01-28T02:40:29;102652.41;;;1.95;100.00
42105;BME280;61464;51.472;5.712;2023-01-28T02:43:00;102651.69;;;1.92;100.00
42105;BME280;61464;51.472;5.712;2023-01-28T02:45:32;102649.25;;;1.89;100.00
42105;BME280;61464;51.472;5.712;2023-01-28T02:48:22;102654.41;;;1.87;100.00
42105;BME280;61464;51.472;5.712;2023-01-28T02:51:14;102656.06;;;1.88;100.00
42105;BME280;61464;51.472;5.712;2023-01-28T02:54:08;102653.69;;;1.84;100.00
42105;BME280;61464;51.472;5.712;2023-01-28T03:00:17;102658.03;;;1.81;100.00
42105;BME280;61464;51.472;5.712;2023-01-28T03:03:34;102650.38;;;1.80;100.00
42105;BME280;61464;51.472;5.712;2023-01-28T03:06:08;102653.06;;;1.77;100.00
42105;BME280;61464;51.472;5.712;2023-01-28T03:08:55;102658.81;;;1.84;100.00
42105;BME280;61464;51.472;5.712;2023-01-28T03:12:09;102663.13;;;1.81;100.00
42105;BME280;61464;51.472;5.712;2023-01-28T03:15:17;102652.94;;;1.80;100.00
42105;BME280;61464;51.472;5.712;2023-01-28T03:18:16;102658.06;;;1.80;100.00
42105;BME280;61464;51.472;5.712;2023-01-28T03:24:31;102658.16;;;1.78;100.00
42105;BME280;61464;51.472;5.712;2023-01-28T03:27:43;102661.47;;;1.80;100.00
42105;BME280;61464;51.472;5.712;2023-01-28T03:30:41;102661.63;;;1.76;100.00
42105;BME280;61464;51.472;5.712;2023-01-28T03:33:28;102658.84;;;1.82;100.00
42105;BME280;61464;51.472;5.712;2023-01-28T03:36:16;102663.19;;;1.80;100.00
42105;BME280;61464;51.472;5.712;2023-01-28T03:39:01;102668.38;;;1.78;100.00
42105;BME280;61464;51.472;5.712;2023-01-28T03:41:27;102674.34;;;1.79;100.00
42105;BME280;61464;51.472;5.712;2023-01-28T03:43:53;102678.56;;;1.80;100.00
42105;BME280;61464;51.472;5.712;2023-01-28T03:46:21;102680.22;;;1.81;100.00
42105;BME280;61464;51.472;5.712;2023-01-28T03:48:48;102664.03;;;1.80;100.00
42105;BME280;61464;51.472;5.712;2023-01-28T03:51:24;102672.50;;;1.83;100.00
42105;BME280;61464;51.472;5.712;2023-01-28T03:53:53;102665.88;;;1.77;100.00
42105;BME280;61464;51.472;5.712;2023-01-28T03:56:22;102663.19;;;1.80;100.00
42105;BME280;61464;51.472;5.712;2023-01-28T03:58:48;102660.69;;;1.78;100.00
42105;BME280;61464;51.472;5.712;2023-01-28T04:01:22;102664.97;;;1.78;100.00
42105;BME280;61464;51.472;5.712;2023-01-28T04:03:53;102669.31;;;1.76;100.00
42105;BME280;61464;51.472;5.712;2023-01-28T04:06:19;102671.00;;;1.77;100.00
42105;BME280;61464;51.472;5.712;2023-01-28T04:08:46;102672.88;;;1.72;100.00
42105;BME280;61464;51.472;5.712;2023-01-28T04:11:19;102660.19;;;1.69;100.00
42105;BME280;61464;51.472;5.712;2023-01-28T04:13:52;102666.25;;;1.66;100.00
42105;BME280;61464;51.472;5.712;2023-01-28T04:16:18;102677.16;;;1.71;100.00
42105;BME280;61464;51.472;5.712;2023-01-28T04:18:45;102679.88;;;1.67;100.00
42105;BME280;61464;51.472;5.712;2023-01-28T04:21:13;102689.78;;;1.76;100.00
42105;BME280;61464;51.472;5.712;2023-01-28T04:23:39;102686.41;;;1.75;100.00
42105;BME280;61464;51.472;5.712;2023-01-28T04:26:07;102687.34;;;1.73;100.00
42105;BME280;61464;51.472;5.712;2023-01-28T04:28:34;102694.88;;;1.77;100.00
42105;BME280;61464;51.472;5.712;2023-01-28T04:31:00;102687.31;;;1.74;100.00
42105;BME280;61464;51.472;5.712;2023-01-28T04:33:28;102679.94;;;1.65;100.00
42105;BME280;61464;51.472;5.712;2023-01-28T04:35:54;102682.31;;;1.70;100.00
42105;BME280;61464;51.472;5.712;2023-01-28T04:38:20;102688.31;;;1.70;100.00
42105;BME280;61464;51.472;5.712;2023-01-28T04:40:50;102677.28;;;1.68;100.00
42105;BME280;61464;51.472;5.712;2023-01-28T04:43:16;102678.19;;;1.66;100.00
42105;BME280;61464;51.472;5.712;2023-01-28T04:45:42;102680.97;;;1.59;100.00
42105;BME280;61464;51.472;5.712;2023-01-28T04:48:08;102688.56;;;1.63;100.00
42105;BME280;61464;51.472;5.712;2023-01-28T04:50:37;102682.53;;;1.64;100.00
42105;BME280;61464;51.472;5.712;2023-01-28T04:53:08;102675.75;;;1.63;100.00
42105;BME280;61464;51.472;5.712;2023-01-28T04:55:39;102681.03;;;1.58;100.00
42105;BME280;61464;51.472;5.712;2023-01-28T04:58:06;102684.59;;;1.54;100.00
42105;BME280;61464;51.472;5.712;2023-01-28T05:00:32;102692.28;;;1.54;100.00
42105;BME280;61464;51.472;5.712;2023-01-28T05:02:58;102684.72;;;1.49;100.00
42105;BME280;61464;51.472;5.712;2023-01-28T05:05:28;102675.44;;;1.47;100.00
42105;BME280;61464;51.472;5.712;2023-01-28T05:07:57;102681.31;;;1.50;100.00
42105;BME280;61464;51.472;5.712;2023-01-28T05:10:26;102692.38;;;1.51;100.00
42105;BME280;61464;51.472;5.712;2023-01-28T05:12:52;102690.63;;;1.51;100.00
42105;BME280;61464;51.472;5.712;2023-01-28T05:15:19;102687.28;;;1.49;100.00
42105;BME280;61464;51.472;5.712;2023-01-28T05:17:46;102687.41;;;1.46;100.00
42105;BME280;61464;51.472;5.712;2023-01-28T05:20:22;102690.84;;;1.45;100.00
42105;BME280;61464;51.472;5.712;2023-01-28T05:22:51;102686.72;;;1.41;100.00
42105;BME280;61464;51.472;5.712;2023-01-28T05:25:22;102685.16;;;1.37;100.00
42105;BME280;61464;51.472;5.712;2023-01-28T05:28:35;102692.81;;;1.37;100.00
42105;BME280;61464;51.472;5.712;2023-01-28T05:31:06;102704.00;;;1.34;100.00
42105;BME280;61464;51.472;5.712;2023-01-28T05:33:49;102690.59;;;1.28;100.00
42105;BME280;61464;51.472;5.712;2023-01-28T05:36:22;102692.44;;;1.23;100.00
42105;BME280;61464;51.472;5.712;2023-01-28T05:38:48;102691.06;;;1.12;100.00
42105;BME280;61464;51.472;5.712;2023-01-28T05:41:15;102693.78;;;1.08;100.00
42105;BME280;61464;51.472;5.712;2023-01-28T05:46:46;102683.78;;;1.00;100.00
42105;BME280;61464;51.472;5.712;2023-01-28T05:49:12;102694.81;;;1.02;100.00
42105;BME280;61464;51.472;5.712;2023-01-28T05:51:41;102690.66;;;0.98;100.00
42105;BME280;61464;51.472;5.712;2023-01-28T05:54:09;102703.47;;;0.98;100.00
42105;BME280;61464;51.472;5.712;2023-01-28T05:56:35;102697.44;;;1.00;100.00
42105;BME280;61464;51.472;5.712;2023-01-28T06:01:49;102699.09;;;1.02;100.00
42105;BME280;61464;51.472;5.712;2023-01-28T06:04:14;102710.03;;;1.07;100.00
42105;BME280;61464;51.472;5.712;2023-01-28T06:06:44;102702.28;;;1.08;100.00
42105;BME280;61464;51.472;5.712;2023-01-28T06:09:12;102705.69;;;1.09;100.00
42105;BME280;61464;51.472;5.712;2023-01-28T06:11:39;102706.53;;;1.09;100.00
42105;BME280;61464;51.472;5.712;2023-01-28T06:14:05;102709.91;;;1.10;100.00
42105;BME280;61464;51.472;5.712;2023-01-28T06:16:32;102709.91;;;1.10;100.00
42105;BME280;61464;51.472;5.712;2023-01-28T06:18:59;102689.44;;;1.10;100.00
42105;BME280;61464;51.472;5.712;2023-01-28T06:21:28;102699.59;;;1.13;100.00
42105;BME280;61464;51.472;5.712;2023-01-28T06:23:54;102708.88;;;1.15;100.00
42105;BME280;61464;51.472;5.712;2023-01-28T06:26:21;102714.00;;;1.15;100.00
42105;BME280;61464;51.472;5.712;2023-01-28T06:28:47;102714.84;;;1.16;100.00
42105;BME280;61464;51.472;5.712;2023-01-28T06:31:14;102713.97;;;1.17;100.00
42105;BME280;61464;51.472;5.712;2023-01-28T06:33:41;102714.69;;;1.20;100.00
42105;BME280;61464;51.472;5.712;2023-01-28T06:36:08;102715.63;;;1.18;100.00
42105;BME280;61464;51.472;5.712;2023-01-28T06:38:39;102726.59;;;1.22;100.00
42105;BME280;61464;51.472;5.712;2023-01-28T06:41:07;102721.53;;;1.20;100.00
42105;BME280;61464;51.472;5.712;2023-01-28T06:43:41;102718.19;;;1.18;100.00
42105;BME280;61464;51.472;5.712;2023-01-28T06:46:08;102719.78;;;1.20;100.00
42105;BME280;61464;51.472;5.712;2023-01-28T06:48:35;102721.47;;;1.22;100.00
42105;BME280;61464;51.472;5.712;2023-01-28T06:51:02;102723.28;;;1.18;100.00
42105;BME280;61464;51.472;5.712;2023-01-28T06:53:28;102730.97;;;1.18;100.00
42105;BME280;61464;51.472;5.712;2023-01-28T06:56:02;102729.25;;;1.18;100.00
42105;BME280;61464;51.472;5.712;2023-01-28T06:58:29;102725.06;;;1.16;100.00
42105;BME280;61464;51.472;5.712;2023-01-28T07:00:56;102734.34;;;1.18;100.00
42105;BME280;61464;51.472;5.712;2023-01-28T07:03:48;102725.09;;;1.14;100.00
42105;BME280;61464;51.472;5.712;2023-01-28T07:06:15;102726.94;;;1.11;100.00
42105;BME280;61464;51.472;5.712;2023-01-28T07:08:44;102721.91;;;1.08;100.00
42105;BME280;61464;51.472;5.712;2023-01-28T07:11:10;102732.84;;;1.13;100.00
42105;BME280;61464;51.472;5.712;2023-01-28T07:13:51;102728.72;;;1.09;100.00
42105;BME280;61464;51.472;5.712;2023-01-28T07:16:19;102729.59;;;1.08;100.00
42105;BME280;61464;51.472;5.712;2023-01-28T07:18:49;102725.41;;;1.05;100.00
42105;BME280;61464;51.472;5.712;2023-01-28T07:21:17;102733.09;;;1.05;100.00
42105;BME280;61464;51.472;5.712;2023-01-28T07:23:49;102731.34;;;1.06;100.00
42105;BME280;61464;51.472;5.712;2023-01-28T07:26:15;102738.25;;;1.04;100.00
42105;BME280;61464;51.472;5.712;2023-01-28T07:28:42;102739.06;;;1.04;100.00
42105;BME280;61464;51.472;5.712;2023-01-28T07:31:10;102734.84;;;1.03;100.00
42105;BME280;61464;51.472;5.712;2023-01-28T07:33:36;102740.72;;;1.07;100.00
42105;BME280;61464;51.472;5.712;2023-01-28T07:36:02;102745.84;;;1.07;100.00
42105;BME280;61464;51.472;5.712;2023-01-28T07:38:28;102750.94;;;1.07;100.00
42105;BME280;61464;51.472;5.712;2023-01-28T07:40:54;102751.03;;;1.04;100.00
42105;BME280;61464;51.472;5.712;2023-01-28T07:43:20;102750.94;;;1.07;100.00
42105;BME280;61464;51.472;5.712;2023-01-28T07:45:47;102759.50;;;1.06;100.00
42105;BME280;61464;51.472;5.712;2023-01-28T07:48:14;102758.69;;;1.04;100.00
42105;BME280;61464;51.472;5.712;2023-01-28T07:50:40;102761.09;;;1.08;100.00
42105;BME280;61464;51.472;5.712;2023-01-28T07:53:10;102756.91;;;1.07;100.00
42105;BME280;61464;51.472;5.712;2023-01-28T07:55:38;102761.19;;;1.07;100.00
42105;BME280;61464;51.472;5.712;2023-01-28T07:58:07;102773.97;;;1.07;100.00
42105;BME280;61464;51.472;5.712;2023-01-28T08:00:36;102768.09;;;1.03;100.00
42105;BME280;61464;51.472;5.712;2023-01-28T08:03:14;102769.72;;;1.06;100.00
42105;BME280;61464;51.472;5.712;2023-01-28T08:05:48;102771.44;;;1.05;100.00
42105;BME280;61464;51.472;5.712;2023-01-28T08:08:16;102770.50;;;1.08;100.00
42105;BME280;61464;51.472;5.712;2023-01-28T08:10:42;102780.75;;;1.08;100.00
42105;BME280;61464;51.472;5.712;2023-01-28T08:13:12;102787.53;;;1.09;100.00
42105;BME280;61464;51.472;5.712;2023-01-28T08:15:39;102780.94;;;1.02;100.00
42105;BME280;61464;51.472;5.712;2023-01-28T08:18:08;102786.75;;;1.07;100.00
42105;BME280;61464;51.472;5.712;2023-01-28T08:20:34;102789.22;;;1.10;100.00
42105;BME280;61464;51.472;5.712;2023-01-28T08:23:17;102788.53;;;1.05;100.00
42105;BME280;61464;51.472;5.712;2023-01-28T08:25:45;102780.00;;;1.04;100.00
42105;BME280;61464;51.472;5.712;2023-01-28T08:28:13;102792.88;;;1.01;100.00
42105;BME280;61464;51.472;5.712;2023-01-28T08:30:40;102795.53;;;0.98;100.00
42105;BME280;61464;51.472;5.712;2023-01-28T08:33:09;102807.16;;;1.08;100.00
42105;BME280;61464;51.472;5.712;2023-01-28T08:35:36;102810.41;;;1.13;100.00
42105;BME280;61464;51.472;5.712;2023-01-28T08:38:04;102813.66;;;1.18;100.00
42105;BME280;61464;51.472;5.712;2023-01-28T08:40:31;102818.75;;;1.20;100.00
42105;BME280;61464;51.472;5.712;2023-01-28T08:42:57;102821.91;;;1.28;100.00
42105;BME280;61464;51.472;5.712;2023-01-28T08:45:26;102830.47;;;1.27;100.00
42105;BME280;61464;51.472;5.712;2023-01-28T08:47:54;102827.63;;;1.36;100.00
42105;BME280;61464;51.472;5.712;2023-01-28T08:50:23;102829.22;;;1.39;100.00
42105;BME280;61464;51.472;5.712;2023-01-28T08:52:58;102842.50;;;1.52;100.00
42105;BME280;61464;51.472;5.712;2023-01-28T08:55:27;102834.44;;;1.64;100.00
42105;BME280;61464;51.472;5.712;2023-01-28T08:57:53;102828.66;;;1.57;100.00
42105;BME280;61464;51.472;5.712;2023-01-28T09:00:20;102834.72;;;1.55;100.00
42105;BME280;61464;51.472;5.712;2023-01-28T09:02:50;102838.63;;;1.67;100.00
42105;BME280;61464;51.472;5.712;2023-01-28T09:05:17;102842.81;;;1.68;100.00
42105;BME280;61464;51.472;5.712;2023-01-28T09:07:43;102846.06;;;1.74;100.00
42105;BME280;61464;51.472;5.712;2023-01-28T09:10:14;102840.78;;;1.79;100.00
42105;BME280;61464;51.472;5.712;2023-01-28T09:12:42;102837.06;;;1.61;100.00
42105;BME280;61464;51.472;5.712;2023-01-28T09:15:34;102840.28;;;1.68;100.00
42105;BME280;61464;51.472;5.712;2023-01-28T09:18:01;102849.06;;;1.60;100.00
42105;BME280;61464;51.472;5.712;2023-01-28T09:20:32;102847.75;;;1.74;100.00
42105;BME280;61464;51.472;5.712;2023-01-28T09:23:25;102853.00;;;1.71;100.00
42105;BME280;61464;51.472;5.712;2023-01-28T09:26:09;102858.94;;;1.71;100.00
42105;BME280;61464;51.472;5.712;2023-01-28T09:28:37;102859.09;;;1.67;100.00
42105;BME280;61464;51.472;5.712;2023-01-28T09:31:21;102857.16;;;1.73;100.00
42105;BME280;61464;51.472;5.712;2023-01-28T09:33:48;102862.25;;;1.75;100.00
42105;BME280;61464;51.472;5.712;2023-01-28T09:36:19;102852.34;;;1.64;100.00
42105;BME280;61464;51.472;5.712;2023-01-28T09:38:45;102856.19;;;1.77;100.00
42105;BME280;61464;51.472;5.712;2023-01-28T09:41:27;102860.66;;;1.71;100.00
42105;BME280;61464;51.472;5.712;2023-01-28T09:47:14;102862.91;;;1.80;100.00
42105;BME280;61464;51.472;5.712;2023-01-28T09:49:51;102855.25;;;1.80;100.00
42105;BME280;61464;51.472;5.712;2023-01-28T09:52:28;102866.19;;;1.85;100.00
42105;BME280;61464;51.472;5.712;2023-01-28T09:57:50;102877.81;;;1.69;100.00
42105;BME280;61464;51.472;5.712;2023-01-28T10:00:32;102872.16;;;1.57;100.00
42105;BME280;61464;51.472;5.712;2023-01-28T10:13:24;102875.53;;;1.86;100.00
42105;BME280;61464;51.472;5.712;2023-01-28T10:19:04;102879.34;;;1.74;100.00
42105;BME280;61464;51.472;5.712;2023-01-28T10:25:29;102887.03;;;1.74;100.00
42105;BME280;61464;51.472;5.712;2023-01-28T10:28:10;102886.31;;;1.69;100.00
42105;BME280;61464;51.472;5.712;2023-01-28T10:30:53;102888.28;;;1.61;100.00
42105;BME280;61464;51.472;5.712;2023-01-28T10:33:35;102893.25;;;1.66;100.00
42105;BME280;61464;51.472;5.712;2023-01-28T10:36:08;102890.78;;;1.63;100.00
42105;BME280;61464;51.472;5.712;2023-01-28T10:38:51;102890.88;;;1.59;100.00
42105;BME280;61464;51.472;5.712;2023-01-28T10:42:07;102889.78;;;1.40;100.00
42105;BME280;61464;51.472;5.712;2023-01-28T10:44:42;102879.06;;;1.55;100.00
42105;BME280;61464;51.472;5.712;2023-01-28T10:47:32;102872.50;;;1.47;100.00
42105;BME280;61464;51.472;5.712;2023-01-28T10:50:09;102884.97;;;1.57;100.00
42105;BME280;61464;51.472;5.712;2023-01-28T10:52:53;102885.16;;;1.51;100.00
42105;BME280;61464;51.472;5.712;2023-01-28T10:55:47;102878.16;;;1.58;100.00
42105;BME280;61464;51.472;5.712;2023-01-28T10:58:24;102883.69;;;1.44;100.00
42105;BME280;61464;51.472;5.712;2023-01-28T11:01:04;102883.28;;;1.58;100.00
42105;BME280;61464;51.472;5.712;2023-01-28T11:03:50;102880.22;;;1.45;100.00
42105;BME280;61464;51.472;5.712;2023-01-28T11:06:29;102868.38;;;1.43;100.00
42105;BME280;61464;51.472;5.712;2023-01-28T11:08:56;102867.44;;;1.45;100.00
42105;BME280;61464;51.472;5.712;2023-01-28T11:11:27;102881.44;;;1.61;100.00
42105;BME280;61464;51.472;5.712;2023-01-28T11:13:55;102889.97;;;1.62;100.00
42105;BME280;61464;51.472;5.712;2023-01-28T11:16:31;102887.91;;;1.45;100.00
42105;BME280;61464;51.472;5.712;2023-01-28T11:19:04;102885.50;;;1.40;100.00
42105;BME280;61464;51.472;5.712;2023-01-28T11:21:32;102879.34;;;1.46;100.00
42105;BME280;61464;51.472;5.712;2023-01-28T11:24:31;102894.16;;;1.36;100.00
42105;BME280;61464;51.472;5.712;2023-01-28T11:27:15;102880.53;;;1.36;100.00
42105;BME280;61464;51.472;5.712;2023-01-28T11:29:45;102866.72;;;1.42;100.00
42105;BME280;61464;51.472;5.712;2023-01-28T11:32:19;102868.22;;;1.47;100.00
42105;BME280;61464;51.472;5.712;2023-01-28T11:34:53;102861.66;;;1.38;100.00
42105;BME280;61464;51.472;5.712;2023-01-28T11:37:26;102858.97;;;1.43;100.00
42105;BME280;61464;51.472;5.712;2023-01-28T11:40:18;102853.63;;;1.51;100.00
42105;BME280;61464;51.472;5.712;2023-01-28T11:42:50;102852.19;;;1.69;100.00
42105;BME280;61464;51.472;5.712;2023-01-28T11:48:59;102831.47;;;1.76;100.00
42105;BME280;61464;51.472;5.712;2023-01-28T11:52:02;102829.09;;;1.97;100.00
42105;BME280;61464;51.472;5.712;2023-01-28T12:07:13;102807.28;;;1.85;100.00
42105;BME280;61464;51.472;5.712;2023-01-28T12:10:23;102797.84;;;2.11;100.00
42105;BME280;61464;51.472;5.712;2023-01-28T12:19:17;102743.63;;;2.23;100.00
42105;BME280;61464;51.472;5.712;2023-01-28T12:32:01;102746.34;;;2.18;100.00
42105;BME280;61464;51.472;5.712;2023-01-28T12:49:34;102777.69;;;1.76;100.00
42105;BME280;61464;51.472;5.712;2023-01-28T12:52:34;102783.06;;;1.69;100.00
42105;BME280;61464;51.472;5.712;2023-01-28T12:55:43;102784.72;;;1.70;100.00
42105;BME280;61464;51.472;5.712;2023-01-28T12:58:20;102787.69;;;1.57;100.00
42105;BME280;61464;51.472;5.712;2023-01-28T13:00:53;102784.66;;;1.73;100.00
42105;BME280;61464;51.472;5.712;2023-01-28T13:06:40;102801.91;;;2.18;100.00
42105;BME280;61464;51.472;5.712;2023-01-28T13:09:23;102803.75;;;2.38;100.00
42105;BME280;61464;51.472;5.712;2023-01-28T13:11:53;102790.13;;;2.12;100.00
42105;BME280;61464;51.472;5.712;2023-01-28T13:14:29;102785.56;;;1.97;100.00
42105;BME280;61464;51.472;5.712;2023-01-28T13:17:09;102781.41;;;1.93;100.00
42105;BME280;61464;51.472;5.712;2023-01-28T13:19:40;102776.97;;;1.98;100.00
42105;BME280;61464;51.472;5.712;2023-01-28T13:22:30;102787.47;;;1.90;100.00
42105;BME280;61464;51.472;5.712;2023-01-28T13:25:32;102779.72;;;1.92;100.00
42105;BME280;61464;51.472;5.712;2023-01-28T13:28:03;102787.31;;;2.20;100.00
42105;BME280;61464;51.472;5.712;2023-01-28T13:30:46;102782.97;;;2.46;100.00
42105;BME280;61464;51.472;5.712;2023-01-28T13:33:35;102776.69;;;2.54;100.00
42105;BME280;61464;51.472;5.712;2023-01-28T13:36:22;102777.88;;;2.68;100.00
42105;BME280;61464;51.472;5.712;2023-01-28T13:39:21;102776.72;;;2.53;100.00
42105;BME280;61464;51.472;5.712;2023-01-28T13:42:25;102785.28;;;2.75;100.00
42105;BME280;61464;51.472;5.712;2023-01-28T13:44:52;102771.16;;;2.65;100.00
42105;BME280;61464;51.472;5.712;2023-01-28T13:47:32;102778.84;;;2.65;100.00
42105;BME280;61464;51.472;5.712;2023-01-28T13:50:10;102770.59;;;2.33;100.00
42105;BME280;61464;51.472;5.712;2023-01-28T13:55:26;102747.25;;;2.41;100.00
42105;BME280;61464;51.472;5.712;2023-01-28T13:58:15;102747.19;;;2.19;100.00
42105;BME280;61464;51.472;5.712;2023-01-28T14:01:56;102746.34;;;2.18;100.00
42105;BME280;61464;51.472;5.712;2023-01-28T14:04:53;102736.72;;;2.01;100.00
42105;BME280;61464;51.472;5.712;2023-01-28T14:10:37;102711.25;;;2.20;100.00
42105;BME280;61464;51.472;5.712;2023-01-28T14:19:12;102708.13;;;2.12;100.00
42105;BME280;61464;51.472;5.712;2023-01-28T14:21:38;102710.84;;;2.09;100.00
42105;BME280;61464;51.472;5.712;2023-01-28T14:24:05;102706.63;;;1.83;100.00
42105;BME280;61464;51.472;5.712;2023-01-28T14:32:56;102723.22;;;1.96;100.00
42105;BME280;61464;51.472;5.712;2023-01-28T14:35:45;102737.94;;;1.91;100.00
42105;BME280;61464;51.472;5.712;2023-01-28T14:38:20;102737.53;;;1.78;100.00
42105;BME280;61464;51.472;5.712;2023-01-28T14:40:53;102735.47;;;1.88;100.00
42105;BME280;61464;51.472;5.712;2023-01-28T14:43:24;102747.97;;;1.97;100.00
42105;BME280;61464;51.472;5.712;2023-01-28T14:57:27;102753.91;;;1.73;100.00
42105;BME280;61464;51.472;5.712;2023-01-28T14:59:59;102751.31;;;1.74;100.00
42105;BME280;61464;51.472;5.712;2023-01-28T15:02:30;102752.81;;;1.80;100.00
42105;BME280;61464;51.472;5.712;2023-01-28T15:05:20;102759.91;;;1.72;100.00
42105;BME280;61464;51.472;5.712;2023-01-28T15:07:48;102768.91;;;1.84;100.00
42105;BME280;61464;51.472;5.712;2023-01-28T15:10:19;102767.88;;;1.89;100.00
42105;BME280;61464;51.472;5.712;2023-01-28T15:12:54;102764.56;;;1.86;100.00
42105;BME280;61464;51.472;5.712;2023-01-28T15:15:50;102764.38;;;1.92;100.00
42105;BME280;61464;51.472;5.712;2023-01-28T15:18:44;102766.53;;;2.03;100.00
42105;BME280;61464;51.472;5.712;2023-01-28T15:21:18;102764.28;;;1.95;100.00
42105;BME280;61464;51.472;5.712;2023-01-28T15:23:49;102761.63;;;1.96;100.00
42105;BME280;61464;51.472;5.712;2023-01-28T15:26:22;102755.13;;;1.88;100.00
42105;BME280;61464;51.472;5.712;2023-01-28T15:28:51;102754.34;;;1.86;100.00
42105;BME280;61464;51.472;5.712;2023-01-28T15:31:33;102758.06;;;1.77;100.00
42105;BME280;61464;51.472;5.712;2023-01-28T15:34:08;102752.31;;;1.70;100.00
42105;BME280;61464;51.472;5.712;2023-01-28T15:36:36;102757.69;;;1.63;100.00
42105;BME280;61464;51.472;5.712;2023-01-28T15:39:11;102758.91;;;1.51;100.00